createdAt,value
2022-08-21T00:01:37.064Z,10.30
2022-08-21T00:04:07.809Z,8.27
2022-08-21T00:06:34.905Z,7.85
2022-08-21T00:09:06.280Z,9.43
2022-08-21T00:11:34.241Z,10.40
2022-08-21T00:14:00.615Z,6.05
2022-08-21T00:16:27.256Z,10.25
2022-08-21T00:18:53.670Z,6.68
2022-08-21T00:21:20.117Z,9.75
2022-08-21T00:23:46.669Z,5.88
2022-08-21T00:26:13.029Z,9.13
2022-08-21T00:28:39.500Z,9.02
2022-08-21T00:31:06.167Z,10.52
2022-08-21T00:33:33.549Z,12.30
2022-08-21T00:36:00.078Z,7.50
2022-08-21T00:38:26.455Z,6.70
2022-08-21T00:40:56.317Z,9.88
2022-08-21T00:43:28.489Z,6.22
2022-08-21T00:45:56.189Z,8.18
2022-08-21T00:48:23.677Z,9.18
2022-08-21T00:50:55.245Z,7.95
2022-08-21T00:53:23.441Z,6.25
2022-08-21T00:55:50.416Z,7.70
2022-08-21T00:58:17.500Z,8.88
2022-08-21T01:00:48.562Z,6.85
2022-08-21T01:03:18.100Z,9.93
2022-08-21T01:05:45.078Z,7.55
2022-08-21T01:08:13.037Z,6.97
2022-08-21T01:10:39.775Z,7.75
2022-08-21T01:13:07.681Z,6.00
2022-08-21T01:15:36.724Z,6.30
2022-08-21T01:18:04.951Z,6.60
2022-08-21T01:20:32.771Z,7.93
2022-08-21T01:23:00.806Z,7.57
2022-08-21T01:25:27.198Z,5.85
2022-08-21T01:27:53.579Z,5.60
2022-08-21T01:30:24.323Z,5.25
2022-08-21T01:32:51.978Z,5.55
2022-08-21T01:35:20.099Z,6.65
2022-08-21T01:37:47.535Z,5.28
2022-08-21T01:40:17.014Z,6.32
2022-08-21T01:42:44.516Z,5.45
2022-08-21T01:45:11.137Z,4.82
2022-08-21T01:47:38.323Z,5.05
2022-08-21T01:50:07.603Z,6.30
2022-08-21T01:52:34.252Z,5.68
2022-08-21T01:55:00.734Z,6.50
2022-08-21T01:57:27.331Z,5.93
2022-08-21T01:59:54.291Z,5.65
2022-08-21T02:02:20.744Z,5.95
2022-08-21T02:04:47.164Z,7.20
2022-08-21T02:07:13.570Z,6.65
2022-08-21T02:09:40.172Z,5.10
2022-08-21T02:12:06.869Z,5.72
2022-08-21T02:14:33.259Z,5.38
2022-08-21T02:17:05.415Z,7.68
2022-08-21T02:19:39.604Z,5.57
2022-08-21T02:22:10.888Z,5.75
2022-08-21T02:24:50.569Z,6.70
2022-08-21T02:27:26.049Z,6.18
2022-08-21T02:29:54.817Z,5.50
2022-08-21T02:32:22.468Z,5.03
2022-08-21T02:34:50.003Z,7.18
2022-08-21T02:37:16.598Z,6.93
2022-08-21T02:39:43.349Z,5.30
2022-08-21T02:42:10.184Z,5.00
2022-08-21T02:44:36.577Z,5.65
2022-08-21T02:47:03.073Z,5.50
2022-08-21T02:49:30.554Z,6.00
2022-08-21T02:51:56.950Z,5.07
2022-08-21T02:54:23.316Z,4.88
2022-08-21T02:56:49.702Z,6.05
2022-08-21T02:59:16.065Z,6.18
2022-08-21T03:01:42.484Z,6.18
2022-08-21T03:04:09.015Z,5.35
2022-08-21T03:06:35.427Z,4.85
2022-08-21T03:09:01.802Z,6.60
2022-08-21T03:11:28.198Z,6.00
2022-08-21T03:13:54.562Z,5.43
2022-08-21T03:16:21.551Z,9.27
2022-08-21T03:18:48.297Z,6.22
2022-08-21T03:21:14.752Z,5.97
2022-08-21T03:23:42.808Z,6.13
2022-08-21T03:26:11.573Z,6.22
2022-08-21T03:28:38.009Z,7.57
2022-08-21T03:31:07.638Z,6.03
2022-08-21T03:33:34.448Z,6.88
2022-08-21T03:36:05.254Z,6.40
2022-08-21T03:38:33.193Z,21.92
2022-08-21T03:41:00.566Z,6.25
2022-08-21T03:43:27.751Z,5.90
2022-08-21T03:45:57.637Z,5.90
2022-08-21T03:48:24.021Z,8.68
2022-08-21T03:50:52.963Z,6.10
2022-08-21T03:53:19.345Z,5.60
2022-08-21T03:55:47.804Z,5.70
2022-08-21T03:58:17.122Z,6.15
2022-08-21T04:00:46.699Z,7.40
2022-08-21T04:03:13.130Z,5.72
2022-08-21T04:05:39.663Z,6.18
2022-08-21T04:08:06.787Z,6.35
2022-08-21T04:10:35.903Z,6.30
2022-08-21T04:13:02.424Z,5.50
2022-08-21T04:15:29.297Z,4.93
2022-08-21T04:17:56.050Z,5.90
2022-08-21T04:20:23.034Z,5.80
2022-08-21T04:22:50.475Z,5.95
2022-08-21T04:25:19.466Z,6.38
2022-08-21T04:27:46.628Z,6.53
2022-08-21T04:30:14.798Z,5.65
2022-08-21T04:32:44.874Z,6.40
2022-08-21T04:35:12.590Z,5.68
2022-08-21T04:37:41.596Z,6.28
2022-08-21T04:40:10.931Z,6.10
2022-08-21T04:42:45.422Z,5.70
2022-08-21T04:45:25.926Z,7.32
2022-08-21T04:47:54.136Z,7.38
2022-08-21T04:50:23.449Z,6.75
2022-08-21T04:52:50.041Z,7.43
2022-08-21T04:55:18.059Z,6.45
2022-08-21T04:57:48.706Z,6.30
2022-08-21T05:00:19.221Z,7.90
2022-08-21T05:02:47.961Z,6.30
2022-08-21T05:05:14.575Z,6.20
2022-08-21T05:07:43.170Z,6.78
2022-08-21T05:10:10.231Z,6.47
2022-08-21T05:12:39.072Z,6.38
2022-08-21T05:15:05.702Z,5.82
2022-08-21T05:17:32.262Z,7.30
2022-08-21T05:19:58.683Z,8.43
2022-08-21T05:22:25.454Z,6.70
2022-08-21T05:24:53.217Z,7.38
2022-08-21T05:27:19.794Z,6.00
2022-08-21T05:29:46.584Z,6.55
2022-08-21T05:32:14.206Z,7.13
2022-08-21T05:34:42.163Z,6.72
2022-08-21T05:37:11.681Z,6.47
2022-08-21T05:40:05.094Z,6.28
2022-08-21T05:42:24.525Z,6.70
2022-08-21T05:44:50.881Z,7.22
2022-08-21T05:47:17.587Z,7.20
2022-08-21T05:49:44.005Z,8.40
2022-08-21T05:52:10.425Z,9.05
2022-08-21T05:54:37.744Z,9.32
2022-08-21T05:57:04.367Z,8.88
2022-08-21T05:59:30.751Z,9.60
2022-08-21T06:01:57.186Z,10.32
2022-08-21T06:04:23.629Z,9.25
2022-08-21T06:06:49.983Z,10.50
2022-08-21T06:09:16.342Z,12.43
2022-08-21T06:11:42.764Z,11.48
2022-08-21T06:14:09.243Z,8.70
2022-08-21T06:16:35.648Z,8.65
2022-08-21T06:19:03.081Z,10.35
2022-08-21T06:21:29.827Z,8.38
2022-08-21T06:23:56.559Z,10.32
2022-08-21T06:26:23.106Z,8.57
2022-08-21T06:28:49.479Z,9.25
2022-08-21T06:31:22.171Z,10.77
2022-08-21T06:33:49.127Z,9.88
2022-08-21T06:36:15.923Z,8.65
2022-08-21T06:38:42.586Z,11.55
2022-08-21T06:41:17.706Z,10.52
2022-08-21T06:43:51.198Z,9.45
2022-08-21T06:46:17.761Z,12.18
2022-08-21T06:48:44.136Z,9.60
2022-08-21T06:51:10.543Z,9.55
2022-08-21T06:53:37.022Z,12.20
2022-08-21T06:56:04.213Z,11.52
2022-08-21T06:58:31.794Z,10.82
2022-08-21T07:01:01.066Z,9.20
2022-08-21T07:03:39.594Z,11.88
2022-08-21T07:06:07.228Z,12.75
2022-08-21T07:08:34.305Z,12.18
2022-08-21T07:11:02.974Z,12.85
2022-08-21T07:13:29.561Z,12.27
2022-08-21T07:15:58.232Z,14.90
2022-08-21T07:18:28.667Z,6.82
2022-08-21T07:20:56.007Z,15.45
2022-08-21T07:23:27.380Z,10.63
2022-08-21T07:25:53.761Z,9.73
2022-08-21T07:28:20.311Z,9.88
2022-08-21T07:30:46.930Z,8.18
2022-08-21T07:33:13.589Z,7.95
2022-08-21T07:35:41.221Z,9.35
2022-08-21T07:38:07.690Z,7.35
2022-08-21T07:40:34.206Z,10.45
2022-08-21T07:43:00.747Z,9.35
2022-08-21T07:45:27.967Z,8.00
2022-08-21T07:47:57.445Z,9.27
2022-08-21T07:50:24.695Z,8.93
2022-08-21T07:52:51.185Z,11.30
2022-08-21T07:55:20.402Z,9.85
2022-08-21T07:57:47.426Z,10.88
2022-08-21T08:00:17.455Z,7.70
2022-08-21T08:02:47.478Z,8.18
2022-08-21T08:05:13.857Z,13.35
2022-08-21T08:07:40.825Z,10.40
2022-08-21T08:10:08.919Z,10.80
2022-08-21T08:12:36.797Z,10.45
2022-08-21T08:15:04.754Z,10.52
2022-08-21T08:17:33.061Z,9.52
2022-08-21T08:20:01.703Z,9.07
2022-08-21T08:22:28.227Z,14.25
2022-08-21T08:24:55.138Z,10.57
2022-08-21T08:27:21.858Z,10.77
2022-08-21T08:29:48.651Z,11.20
2022-08-21T08:32:15.373Z,11.50
2022-08-21T08:34:41.748Z,10.60
2022-08-21T08:37:10.529Z,10.02
2022-08-21T08:39:37.379Z,10.02
2022-08-21T08:42:33.052Z,8.05
2022-08-21T08:45:13.567Z,7.45
2022-08-21T08:47:45.504Z,8.88
2022-08-21T08:50:18.334Z,9.88
2022-08-21T08:52:59.803Z,9.13
2022-08-21T08:55:36.487Z,9.93
2022-08-21T08:58:03.668Z,7.80
2022-08-21T09:00:31.744Z,10.18
2022-08-21T09:03:01.357Z,7.85
2022-08-21T09:05:42.292Z,8.48
2022-08-21T09:08:26.748Z,6.95
2022-08-21T09:11:01.788Z,7.70
2022-08-21T09:13:42.111Z,13.05
2022-08-21T09:16:22.751Z,6.45
2022-08-21T09:19:05.933Z,7.63
2022-08-21T09:21:50.793Z,6.57
2022-08-21T09:24:35.123Z,6.63
2022-08-21T09:27:11.688Z,7.68
2022-08-21T09:29:42.610Z,5.70
2022-08-21T09:32:20.602Z,10.52
2022-08-21T09:35:07.318Z,7.80
2022-08-21T09:37:37.150Z,6.93
2022-08-21T09:40:17.243Z,7.35
2022-08-21T09:42:56.039Z,6.63
2022-08-21T09:45:22.868Z,8.30
2022-08-21T09:47:49.490Z,7.68
2022-08-21T09:50:23.828Z,6.70
2022-08-21T09:52:56.493Z,6.13
2022-08-21T09:55:51.626Z,8.07
2022-08-21T09:58:19.395Z,11.75
2022-08-21T10:00:45.926Z,6.07
2022-08-21T10:03:26.482Z,7.85
2022-08-21T10:06:09.672Z,6.47
2022-08-21T10:08:38.495Z,7.53
2022-08-21T10:11:14.096Z,5.95
2022-08-21T10:13:52.473Z,7.65
2022-08-21T10:16:40.605Z,7.13
2022-08-21T10:19:37.780Z,7.20
2022-08-21T10:22:23.598Z,9.60
2022-08-21T10:25:06.272Z,7.15
2022-08-21T10:28:13.384Z,5.78
2022-08-21T10:30:49.690Z,8.85
2022-08-21T10:33:31.195Z,5.28
2022-08-21T10:36:18.266Z,7.25
2022-08-21T10:39:25.263Z,6.85
2022-08-21T10:42:04.573Z,9.60
2022-08-21T10:44:48.698Z,5.53
2022-08-21T10:47:22.402Z,5.72
2022-08-21T10:49:57.435Z,5.07
2022-08-21T10:52:48.459Z,3.95
2022-08-21T10:55:24.977Z,4.97
2022-08-21T10:58:06.362Z,5.95
2022-08-21T11:00:47.399Z,8.07
2022-08-21T11:03:25.563Z,6.50
2022-08-21T11:05:56.660Z,5.88
2022-08-21T11:08:36.509Z,7.18
2022-08-21T11:11:19.313Z,3.28
2022-08-21T11:13:50.905Z,5.38
2022-08-21T11:16:24.883Z,6.78
2022-08-21T11:19:15.093Z,6.07
2022-08-21T11:21:47.958Z,4.70
2022-08-21T11:24:31.287Z,6.70
2022-08-21T11:27:06.348Z,3.17
2022-08-21T11:29:36.301Z,5.88
2022-08-21T11:32:23.784Z,5.03
2022-08-21T11:35:17.157Z,4.72
2022-08-21T11:37:59.153Z,6.40
2022-08-21T11:41:03.127Z,7.25
2022-08-21T11:43:46.300Z,6.90
2022-08-21T11:46:23.791Z,5.45
2022-08-21T11:49:19.846Z,5.07
2022-08-21T11:51:58.090Z,7.78
2022-08-21T11:54:31.888Z,4.82
2022-08-21T11:57:13.458Z,4.43
2022-08-21T11:59:58.441Z,4.80
2022-08-21T12:02:30.711Z,4.70
2022-08-21T12:05:08.769Z,4.07
2022-08-21T12:07:35.298Z,4.15
2022-08-21T12:10:03.222Z,4.15
2022-08-21T12:12:31.188Z,5.05
2022-08-21T12:15:22.526Z,5.50
2022-08-21T12:17:56.928Z,5.32
2022-08-21T12:20:50.500Z,5.70
2022-08-21T12:23:24.919Z,5.07
2022-08-21T12:28:36.200Z,7.55
2022-08-21T12:31:02.641Z,7.57
2022-08-21T12:33:39.032Z,8.00
2022-08-21T12:36:12.506Z,4.80
2022-08-21T12:38:58.774Z,5.65
2022-08-21T12:42:02.193Z,5.18
2022-08-21T12:44:39.774Z,4.85
2022-08-21T12:47:17.019Z,7.22
2022-08-21T12:49:53.505Z,4.05
2022-08-21T12:52:39.617Z,6.10
2022-08-21T12:55:07.585Z,4.70
2022-08-21T12:57:37.756Z,3.92
2022-08-21T13:00:11.497Z,5.40
2022-08-21T13:02:40.949Z,5.55
2022-08-21T13:05:09.164Z,3.00
2022-08-21T13:07:36.887Z,4.78
2022-08-21T13:10:19.513Z,4.38
2022-08-21T13:12:46.261Z,4.40
2022-08-21T13:15:12.950Z,4.22
2022-08-21T13:17:46.350Z,7.72
2022-08-21T13:20:24.421Z,5.85
2022-08-21T13:22:51.377Z,7.10
2022-08-21T13:25:19.993Z,6.43
2022-08-21T13:28:05.141Z,7.05
2022-08-21T13:30:31.588Z,5.75
2022-08-21T13:33:06.291Z,4.22
2022-08-21T13:35:52.281Z,4.72
2022-08-21T13:38:21.664Z,3.03
2022-08-21T13:41:18.654Z,5.32
2022-08-21T13:43:48.058Z,5.82
2022-08-21T13:46:15.616Z,3.53
2022-08-21T13:48:42.691Z,3.85
2022-08-21T13:51:10.371Z,4.30
2022-08-21T13:53:53.219Z,6.85
2022-08-21T13:56:43.176Z,5.50
2022-08-21T13:59:09.702Z,4.28
2022-08-21T14:01:40.887Z,5.40
2022-08-21T14:04:20.382Z,3.90
2022-08-21T14:06:47.155Z,4.72
2022-08-21T14:09:30.491Z,2.72
2022-08-21T14:11:57.719Z,3.95
2022-08-21T14:14:28.718Z,3.85
2022-08-21T14:17:25.312Z,5.40
2022-08-21T14:19:55.900Z,4.50
2022-08-21T14:22:33.892Z,3.38
2022-08-21T14:25:03.405Z,2.97
2022-08-21T14:27:31.753Z,4.88
2022-08-21T14:30:11.138Z,6.75
2022-08-21T14:32:46.157Z,4.75
2022-08-21T14:35:18.385Z,4.85
2022-08-21T14:37:53.229Z,3.38
2022-08-21T14:40:21.464Z,2.42
2022-08-21T14:42:50.307Z,2.97
2022-08-21T14:45:27.509Z,2.65
2022-08-21T14:47:55.023Z,3.55
2022-08-21T14:50:21.526Z,5.22
2022-08-21T14:52:48.001Z,4.03
2022-08-21T14:55:17.430Z,4.68
2022-08-21T14:57:48.756Z,4.45
2022-08-21T15:00:20.372Z,3.72
2022-08-21T15:02:47.399Z,4.88
2022-08-21T15:05:16.618Z,3.53
2022-08-21T15:07:53.299Z,3.67
2022-08-21T15:10:19.830Z,4.30
2022-08-21T15:12:46.322Z,4.43
2022-08-21T15:15:12.717Z,3.53
2022-08-21T15:17:48.123Z,5.65
2022-08-21T15:20:14.990Z,5.60
2022-08-21T15:22:41.394Z,4.25
2022-08-21T15:25:14.455Z,3.88
2022-08-21T15:27:40.919Z,2.88
2022-08-21T15:30:08.004Z,3.17
2022-08-21T15:32:34.627Z,3.58
2022-08-21T15:35:01.347Z,3.67
2022-08-21T15:37:27.918Z,4.18
2022-08-21T15:39:54.677Z,4.68
2022-08-21T15:42:21.370Z,4.03
2022-08-21T15:44:48.202Z,2.75
2022-08-21T15:47:18.858Z,3.17
2022-08-21T15:49:46.246Z,6.95
2022-08-21T15:52:17.327Z,4.15
2022-08-21T15:54:43.782Z,6.95
2022-08-21T15:57:12.042Z,3.10
2022-08-21T15:59:42.834Z,3.08
2022-08-21T16:02:14.751Z,2.65
2022-08-21T16:04:41.267Z,4.15
2022-08-21T16:07:09.672Z,3.08
2022-08-21T16:09:36.303Z,4.15
2022-08-21T16:12:02.920Z,3.17
2022-08-21T16:14:30.538Z,4.22
2022-08-21T16:16:57.338Z,2.80
2022-08-21T16:19:23.729Z,4.70
2022-08-21T16:21:50.334Z,2.83
2022-08-21T16:24:16.692Z,4.35
2022-08-21T16:26:43.217Z,5.40
2022-08-21T16:29:11.001Z,5.13
2022-08-21T16:31:37.403Z,5.97
2022-08-21T16:34:04.018Z,2.80
2022-08-21T16:36:30.476Z,3.15
2022-08-21T16:38:58.005Z,2.78
2022-08-21T16:41:28.523Z,2.08
2022-08-21T16:43:55.402Z,2.88
2022-08-21T16:46:22.540Z,2.78
2022-08-21T16:48:50.068Z,1.98
2022-08-21T16:51:17.132Z,3.50
2022-08-21T16:53:43.710Z,1.23
2022-08-21T16:56:11.403Z,3.10
2022-08-21T16:58:40.274Z,3.28
2022-08-21T17:01:10.290Z,2.60
2022-08-21T17:03:39.054Z,4.70
2022-08-21T17:06:06.161Z,1.73
2022-08-21T17:08:32.856Z,4.03
2022-08-21T17:10:59.797Z,3.08
2022-08-21T17:13:27.099Z,2.35
2022-08-21T17:15:53.531Z,2.33
2022-08-21T17:18:22.927Z,3.42
2022-08-21T17:20:50.177Z,2.85
2022-08-21T17:23:17.794Z,2.63
2022-08-21T17:25:47.566Z,2.05
2022-08-21T17:28:17.319Z,3.20
2022-08-21T17:30:46.057Z,2.38
2022-08-21T17:33:17.967Z,2.13
2022-08-21T17:35:44.415Z,3.08
2022-08-21T17:38:14.921Z,2.88
2022-08-21T17:40:41.551Z,3.30
2022-08-21T17:43:11.660Z,4.93
2022-08-21T17:45:40.011Z,2.25
2022-08-21T17:48:08.104Z,2.33
2022-08-21T17:50:35.458Z,2.80
2022-08-21T17:53:01.861Z,5.47
2022-08-21T17:55:29.491Z,2.15
2022-08-21T17:57:56.722Z,3.38
2022-08-21T18:00:25.099Z,3.40
2022-08-21T18:03:00.391Z,4.20
2022-08-21T18:05:27.172Z,4.10
2022-08-21T18:07:53.534Z,4.00
2022-08-21T18:10:20.162Z,2.40
2022-08-21T18:12:46.810Z,3.13
2022-08-21T18:15:14.522Z,4.30
2022-08-21T18:17:42.404Z,6.32
2022-08-21T18:20:09.196Z,9.43
2022-08-21T18:22:35.578Z,4.88
2022-08-21T18:25:02.056Z,4.78
2022-08-21T18:27:29.811Z,3.75
2022-08-21T18:30:00.112Z,3.63
2022-08-21T18:32:31.714Z,4.72
2022-08-21T18:35:01.028Z,5.63
2022-08-21T18:37:27.669Z,3.20
2022-08-21T18:39:54.126Z,2.10
2022-08-21T18:42:21.424Z,5.47
2022-08-21T18:44:59.180Z,3.53
2022-08-21T18:47:33.527Z,2.67
2022-08-21T18:49:59.925Z,3.15
2022-08-21T18:52:28.622Z,4.65
2022-08-21T18:54:55.412Z,6.03
2022-08-21T18:57:23.242Z,3.40
2022-08-21T18:59:49.618Z,5.43
2022-08-21T19:02:16.131Z,4.75
2022-08-21T19:07:29.087Z,5.13
2022-08-21T19:10:24.069Z,3.00
2022-08-21T19:12:44.137Z,4.32
2022-08-21T19:15:15.167Z,2.60
2022-08-21T19:17:41.996Z,3.47
2022-08-21T19:20:25.683Z,6.63
2022-08-21T19:22:53.752Z,2.85
2022-08-21T19:25:20.269Z,2.80
2022-08-21T19:28:02.334Z,6.45
2022-08-21T19:30:30.703Z,6.20
2022-08-21T19:32:57.163Z,4.40
2022-08-21T19:35:23.698Z,3.05
2022-08-21T19:37:50.265Z,3.85
2022-08-21T19:40:18.934Z,4.22
2022-08-21T19:42:48.762Z,2.90
2022-08-21T19:45:16.412Z,3.85
2022-08-21T19:47:46.845Z,3.63
2022-08-21T19:50:17.942Z,2.90
2022-08-21T19:52:51.399Z,3.95
2022-08-21T19:55:34.897Z,4.25
2022-08-21T19:58:01.884Z,23.38
2022-08-21T20:00:28.294Z,7.43
2022-08-21T20:02:54.727Z,24.92
2022-08-21T20:05:21.429Z,51.17
2022-08-21T20:07:48.242Z,24.40
2022-08-21T20:10:14.586Z,9.98
2022-08-21T20:12:41.714Z,8.23
2022-08-21T20:15:09.118Z,5.70
2022-08-21T20:17:36.004Z,4.55
2022-08-21T20:20:02.542Z,3.58
2022-08-21T20:22:28.965Z,8.93
2022-08-21T20:24:55.799Z,3.35
2022-08-21T20:27:25.217Z,7.05
2022-08-21T20:29:51.802Z,2.53
2022-08-21T20:32:18.430Z,2.67
2022-08-21T20:34:45.397Z,2.83
2022-08-21T20:37:12.095Z,4.25
2022-08-21T20:39:38.525Z,1.98
2022-08-21T20:42:08.349Z,4.13
2022-08-21T20:44:35.910Z,3.22
2022-08-21T20:49:53.759Z,3.85
2022-08-21T20:52:20.537Z,3.13
2022-08-21T20:54:57.870Z,3.83
2022-08-21T20:57:44.524Z,3.40
2022-08-21T21:03:30.510Z,1.98
2022-08-21T21:06:03.737Z,2.05
2022-08-21T21:08:37.815Z,1.98
2022-08-21T21:11:16.063Z,2.38
2022-08-21T21:13:52.185Z,5.60
2022-08-21T21:16:31.045Z,2.88
2022-08-21T21:19:03.714Z,4.03
2022-08-21T21:21:33.887Z,1.90
2022-08-21T21:24:14.801Z,1.65
2022-08-21T21:26:52.390Z,2.60
2022-08-21T21:29:21.622Z,7.13
2022-08-21T21:34:41.264Z,2.95
2022-08-21T21:37:08.146Z,2.92
2022-08-21T21:39:51.684Z,5.47
2022-08-21T21:42:31.297Z,3.67
2022-08-21T21:45:09.347Z,3.42
2022-08-21T21:47:52.940Z,4.40
2022-08-21T21:50:34.077Z,3.80
2022-08-21T21:53:25.968Z,2.00
2022-08-21T21:56:17.178Z,3.58
2022-08-21T21:59:08.274Z,1.98
2022-08-21T22:01:57.479Z,3.60
2022-08-21T22:04:39.200Z,3.28
2022-08-21T22:07:28.456Z,1.92
2022-08-21T22:10:05.494Z,2.00
2022-08-21T22:12:49.775Z,1.48
2022-08-21T22:15:27.341Z,3.42
2022-08-21T22:18:14.868Z,3.47
2022-08-21T22:21:25.512Z,2.05
2022-08-21T22:23:54.200Z,2.92
2022-08-21T22:26:26.222Z,3.22
2022-08-21T22:28:53.624Z,2.10
2022-08-21T22:31:23.376Z,2.20
2022-08-21T22:34:18.171Z,3.10
2022-08-21T22:36:50.254Z,1.80
2022-08-21T22:39:39.077Z,2.67
2022-08-21T22:42:20.436Z,2.90
2022-08-21T22:45:01.789Z,2.38
2022-08-21T22:47:45.115Z,2.35
2022-08-21T22:50:29.168Z,2.70
2022-08-21T22:53:00.434Z,1.70
2022-08-21T22:55:37.888Z,2.65
2022-08-21T22:58:20.295Z,3.88
2022-08-21T23:00:52.362Z,2.50
2022-08-21T23:03:30.402Z,4.32
2022-08-21T23:05:59.607Z,2.80
2022-08-21T23:08:33.897Z,4.00
2022-08-21T23:11:26.225Z,1.95
2022-08-21T23:13:55.405Z,2.55
2022-08-21T23:16:47.220Z,2.40
2022-08-21T23:19:14.194Z,2.17
2022-08-21T23:21:52.895Z,3.13
2022-08-21T23:24:46.477Z,4.40
2022-08-21T23:27:21.590Z,2.03
2022-08-21T23:30:02.856Z,3.50
2022-08-21T23:32:53.717Z,2.45
2022-08-21T23:35:23.692Z,3.42
2022-08-21T23:37:59.874Z,2.75
2022-08-21T23:41:34.072Z,2.72
2022-08-21T23:44:24.723Z,2.47
2022-08-21T23:47:19.334Z,1.60
2022-08-21T23:49:53.853Z,2.50
2022-08-21T23:52:48.826Z,3.42
2022-08-21T23:55:24.801Z,4.32
2022-08-21T23:58:04.086Z,5.78
